Duquesne, PA (15110)

12:53 PM EST on February 13, 2016 (GMT -0500)
White Oak, PA 15131-1531 | | Change Station
CLOSE
Current Station
Personal Weather Station
Location: White Oak, PA
Elevation: 1076 ft
Nearby Weather Stations

Elev 1076 ft 40.35 °N, 79.82 °W | Updated 4 seconds ago

Overcast
Overcast
10.0 °F
Feels Like -3 °F
N
9.2
Wind Variable Wind from West
Gusts 12.3 mph

Today
High -- | Low -- °F
--% Chance of Precip.
Yesterday
High -- | Low -- °F
Precip. -- in
Pressure 30.31 in
Visibility 1.5 miles
Clouds Few 2400 ft
Mostly Cloudy 3200 ft
Overcast 4500 ft
Windchill -3 °F
Dew Point -3 °F
Humidity 55%
Rainfall 0.00 in
Snow Depth Not available.
7:15 AM 5:51 PM
Waxing Crescent, 32% visible
SPECI KAGC 131732Z 32011G21KT 280V340 1 1/2SM BR FEW024 BKN032 OVC045 M11/M19 A3031 RMK AO2 SNE31 P0000 T11061189
Pressure 30.31 in
Visibility 1.5 miles
Clouds Few 2400 ft
Mostly Cloudy 3200 ft
Overcast 4500 ft
Windchill -3 °F
Dew Point -3 °F
Humidity 55%
Rainfall 0.00 in
Snow Depth Not available.
7:15 AM 5:51 PM
Waxing Crescent, 32% visible
SPECI KAGC 131732Z 32011G21KT 280V340 1 1/2SM BR FEW024 BKN032 OVC045 M11/M19 A3031 RMK AO2 SNE31 P0000 T11061189

10-Day Weather Forecast

Almanac

Astronomy

Feb. 13, 2016 Rise Set
Actual Time
Civil Twilight
Nautical Twilight
Astronomical Twilight
Moon
Length of Visible Light
Length of Day
Tomorrow will be .
, % of the Moon is Illuminated

Today's Extremes

State Highs State Lows

Community

WunderPhotos

Upload Photos

1,892,623 photos uploaded!

WunderBlog® & News

Nearby

Air Quality

  Air Quality AQ Index Pollutant
Not available.

Snow Depth

Station Depth Elevation

Earthquake Activity

City Distance Mag. Time & Date
Minimum magnitude displayed is 2.5.

Coastal Water Temperatures

Place Temperature

Stations

Nearby Weather Stations

Station Location Temp. Windchill Dew Point Humidity Wind Precip. Elev Updated Type
                   

Watches & Warnings

Wind Chill Advisory
Issued: 10:57 AM EST Feb. 13, 2016 – National Weather Service

... Wind Chill Advisory remains in effect until 9 am EST Sunday...

* wind chill... as low as 14 below due to temperatures 4 below to
12 above zero... and winds west 10 to 20 mph with gusts up to
25 mph.

* Impacts... frost bite and hypothermia are possible if
precautions are not taken.